sensor_id;sensor_type;location;lat;lon;timestamp;P1;durP1;ratioP1;P2;durP2;ratioP2
7029;SDS011;3556;53.500;10.176;2023-06-19T00:00:10;8.63;;;7.10;;
7029;SDS011;3556;53.500;10.176;2023-06-19T00:02:39;7.43;;;6.83;;
7029;SDS011;3556;53.500;10.176;2023-06-19T00:05:05;7.50;;;6.90;;
7029;SDS011;3556;53.500;10.176;2023-06-19T00:07:32;8.00;;;7.20;;
7029;SDS011;3556;53.500;10.176;2023-06-19T00:10:01;9.10;;;7.60;;
7029;SDS011;3556;53.500;10.176;2023-06-19T00:12:27;8.10;;;7.30;;
7029;SDS011;3556;53.500;10.176;2023-06-19T00:14:53;11.63;;;7.50;;
7029;SDS011;3556;53.500;10.176;2023-06-19T00:17:18;7.83;;;7.03;;
7029;SDS011;3556;53.500;10.176;2023-06-19T00:19:44;7.63;;;6.93;;
7029;SDS011;3556;53.500;10.176;2023-06-19T00:22:10;7.90;;;7.30;;
7029;SDS011;3556;53.500;10.176;2023-06-19T00:24:35;8.10;;;7.40;;
7029;SDS011;3556;53.500;10.176;2023-06-19T00:27:01;9.37;;;8.30;;
7029;SDS011;3556;53.500;10.176;2023-06-19T00:29:28;8.03;;;7.23;;
7029;SDS011;3556;53.500;10.176;2023-06-19T00:31:54;8.03;;;7.33;;
7029;SDS011;3556;53.500;10.176;2023-06-19T00:34:20;8.77;;;7.97;;
7029;SDS011;3556;53.500;10.176;2023-06-19T00:36:45;8.50;;;7.70;;
7029;SDS011;3556;53.500;10.176;2023-06-19T00:39:11;8.70;;;7.90;;
7029;SDS011;3556;53.500;10.176;2023-06-19T00:41:37;10.70;;;7.50;;
7029;SDS011;3556;53.500;10.176;2023-06-19T00:44:04;9.00;;;7.57;;
7029;SDS011;3556;53.500;10.176;2023-06-19T00:46:30;11.13;;;7.90;;
7029;SDS011;3556;53.500;10.176;2023-06-19T00:48:56;8.20;;;7.50;;
7029;SDS011;3556;53.500;10.176;2023-06-19T00:51:22;8.93;;;8.03;;
7029;SDS011;3556;53.500;10.176;2023-06-19T00:53:48;9.60;;;8.17;;
7029;SDS011;3556;53.500;10.176;2023-06-19T00:56:14;8.30;;;7.60;;
7029;SDS011;3556;53.500;10.176;2023-06-19T00:58:43;8.90;;;8.10;;
7029;SDS011;3556;53.500;10.176;2023-06-19T01:01:09;8.43;;;7.73;;
7029;SDS011;3556;53.500;10.176;2023-06-19T01:03:35;9.23;;;8.03;;
7029;SDS011;3556;53.500;10.176;2023-06-19T01:06:01;10.80;;;8.57;;
7029;SDS011;3556;53.500;10.176;2023-06-19T01:08:55;8.67;;;7.77;;
7029;SDS011;3556;53.500;10.176;2023-06-19T01:11:32;9.40;;;8.50;;
7029;SDS011;3556;53.500;10.176;2023-06-19T01:14:09;10.03;;;8.97;;
7029;SDS011;3556;53.500;10.176;2023-06-19T01:16:41;9.13;;;7.50;;
7029;SDS011;3556;53.500;10.176;2023-06-19T01:19:09;9.40;;;7.97;;
7029;SDS011;3556;53.500;10.176;2023-06-19T01:21:37;10.03;;;8.50;;
7029;SDS011;3556;53.500;10.176;2023-06-19T01:24:03;8.90;;;8.10;;
7029;SDS011;3556;53.500;10.176;2023-06-19T01:26:28;9.57;;;8.07;;
7029;SDS011;3556;53.500;10.176;2023-06-19T01:28:54;11.00;;;9.80;;
7029;SDS011;3556;53.500;10.176;2023-06-19T01:31:22;9.77;;;8.77;;
7029;SDS011;3556;53.500;10.176;2023-06-19T01:33:51;10.70;;;8.30;;
7029;SDS011;3556;53.500;10.176;2023-06-19T01:36:19;10.20;;;8.30;;
7029;SDS011;3556;53.500;10.176;2023-06-19T01:38:47;8.57;;;7.77;;
7029;SDS011;3556;53.500;10.176;2023-06-19T01:41:14;8.77;;;7.97;;
7029;SDS011;3556;53.500;10.176;2023-06-19T01:43:41;11.00;;;8.80;;
7029;SDS011;3556;53.500;10.176;2023-06-19T01:46:08;9.73;;;8.83;;
7029;SDS011;3556;53.500;10.176;2023-06-19T01:48:35;9.73;;;8.70;;
7029;SDS011;3556;53.500;10.176;2023-06-19T01:51:01;9.77;;;8.77;;
7029;SDS011;3556;53.500;10.176;2023-06-19T01:53:31;9.60;;;8.70;;
7029;SDS011;3556;53.500;10.176;2023-06-19T01:55:57;9.60;;;8.60;;
7029;SDS011;3556;53.500;10.176;2023-06-19T01:58:23;12.60;;;9.20;;
7029;SDS011;3556;53.500;10.176;2023-06-19T02:00:49;15.73;;;9.20;;
7029;SDS011;3556;53.500;10.176;2023-06-19T02:03:15;10.40;;;9.40;;
7029;SDS011;3556;53.500;10.176;2023-06-19T02:05:40;10.20;;;9.20;;
7029;SDS011;3556;53.500;10.176;2023-06-19T02:08:06;8.70;;;7.87;;
7029;SDS011;3556;53.500;10.176;2023-06-19T02:10:32;9.13;;;8.33;;
7029;SDS011;3556;53.500;10.176;2023-06-19T02:12:58;9.80;;;8.90;;
7029;SDS011;3556;53.500;10.176;2023-06-19T02:15:23;10.20;;;9.23;;
7029;SDS011;3556;53.500;10.176;2023-06-19T02:17:49;10.87;;;9.20;;
7029;SDS011;3556;53.500;10.176;2023-06-19T02:20:20;11.07;;;9.20;;
7029;SDS011;3556;53.500;10.176;2023-06-19T02:22:46;11.73;;;9.60;;
7029;SDS011;3556;53.500;10.176;2023-06-19T02:25:12;9.63;;;8.73;;
7029;SDS011;3556;53.500;10.176;2023-06-19T02:27:37;10.80;;;9.70;;
7029;SDS011;3556;53.500;10.176;2023-06-19T02:30:03;11.80;;;9.83;;
7029;SDS011;3556;53.500;10.176;2023-06-19T02:32:30;11.07;;;9.70;;
7029;SDS011;3556;53.500;10.176;2023-06-19T02:34:55;11.20;;;10.03;;
7029;SDS011;3556;53.500;10.176;2023-06-19T02:37:22;12.93;;;10.37;;
7029;SDS011;3556;53.500;10.176;2023-06-19T02:39:47;11.30;;;8.60;;
7029;SDS011;3556;53.500;10.176;2023-06-19T02:42:13;10.00;;;9.10;;
7029;SDS011;3556;53.500;10.176;2023-06-19T02:44:39;11.43;;;10.30;;
7029;SDS011;3556;53.500;10.176;2023-06-19T02:47:05;11.43;;;10.33;;
7029;SDS011;3556;53.500;10.176;2023-06-19T02:49:31;11.67;;;9.60;;
7029;SDS011;3556;53.500;10.176;2023-06-19T02:51:57;12.27;;;9.60;;
7029;SDS011;3556;53.500;10.176;2023-06-19T02:54:22;10.00;;;9.00;;
7029;SDS011;3556;53.500;10.176;2023-06-19T02:56:48;10.73;;;9.73;;
7029;SDS011;3556;53.500;10.176;2023-06-19T02:59:13;12.00;;;10.40;;
7029;SDS011;3556;53.500;10.176;2023-06-19T03:01:39;13.73;;;10.03;;
7029;SDS011;3556;53.500;10.176;2023-06-19T03:04:05;11.10;;;10.00;;
7029;SDS011;3556;53.500;10.176;2023-06-19T03:06:30;11.30;;;10.10;;
7029;SDS011;3556;53.500;10.176;2023-06-19T03:08:56;11.60;;;10.40;;
7029;SDS011;3556;53.500;10.176;2023-06-19T03:11:21;11.20;;;10.10;;
7029;SDS011;3556;53.500;10.176;2023-06-19T03:13:48;11.43;;;10.33;;
7029;SDS011;3556;53.500;10.176;2023-06-19T03:16:17;11.07;;;9.93;;
7029;SDS011;3556;53.500;10.176;2023-06-19T03:18:43;11.23;;;10.03;;
7029;SDS011;3556;53.500;10.176;2023-06-19T03:21:14;10.80;;;9.73;;
7029;SDS011;3556;53.500;10.176;2023-06-19T03:23:40;10.23;;;9.13;;
7029;SDS011;3556;53.500;10.176;2023-06-19T03:26:09;11.30;;;10.13;;
7029;SDS011;3556;53.500;10.176;2023-06-19T03:28:35;10.57;;;9.60;;
7029;SDS011;3556;53.500;10.176;2023-06-19T03:31:01;13.50;;;10.40;;
7029;SDS011;3556;53.500;10.176;2023-06-19T03:33:27;10.30;;;9.27;;
7029;SDS011;3556;53.500;10.176;2023-06-19T03:35:53;11.10;;;10.03;;
7029;SDS011;3556;53.500;10.176;2023-06-19T03:38:18;10.83;;;9.83;;
7029;SDS011;3556;53.500;10.176;2023-06-19T03:40:44;11.30;;;9.90;;
7029;SDS011;3556;53.500;10.176;2023-06-19T03:43:09;12.00;;;10.80;;
7029;SDS011;3556;53.500;10.176;2023-06-19T03:45:36;12.17;;;10.50;;
7029;SDS011;3556;53.500;10.176;2023-06-19T03:48:01;12.53;;;10.77;;
7029;SDS011;3556;53.500;10.176;2023-06-19T03:50:27;12.10;;;10.40;;
7029;SDS011;3556;53.500;10.176;2023-06-19T03:52:53;12.33;;;10.90;;
7029;SDS011;3556;53.500;10.176;2023-06-19T03:55:18;12.27;;;11.07;;
7029;SDS011;3556;53.500;10.176;2023-06-19T03:57:44;11.23;;;10.13;;
7029;SDS011;3556;53.500;10.176;2023-06-19T04:00:10;10.97;;;9.97;;
7029;SDS011;3556;53.500;10.176;2023-06-19T04:02:38;11.03;;;10.03;;
7029;SDS011;3556;53.500;10.176;2023-06-19T04:05:04;12.43;;;10.60;;
7029;SDS011;3556;53.500;10.176;2023-06-19T04:07:31;12.30;;;10.50;;
7029;SDS011;3556;53.500;10.176;2023-06-19T04:09:57;12.07;;;10.87;;
7029;SDS011;3556;53.500;10.176;2023-06-19T04:12:23;12.30;;;11.20;;
7029;SDS011;3556;53.500;10.176;2023-06-19T04:14:48;11.43;;;10.33;;
7029;SDS011;3556;53.500;10.176;2023-06-19T04:17:14;11.40;;;10.23;;
7029;SDS011;3556;53.500;10.176;2023-06-19T04:19:40;11.23;;;10.13;;
7029;SDS011;3556;53.500;10.176;2023-06-19T04:22:06;11.57;;;10.37;;
7029;SDS011;3556;53.500;10.176;2023-06-19T04:24:32;14.00;;;10.40;;
7029;SDS011;3556;53.500;10.176;2023-06-19T04:26:58;11.37;;;10.27;;
7029;SDS011;3556;53.500;10.176;2023-06-19T04:29:23;13.30;;;10.50;;
7029;SDS011;3556;53.500;10.176;2023-06-19T04:31:49;11.97;;;10.77;;
7029;SDS011;3556;53.500;10.176;2023-06-19T04:34:15;11.37;;;10.20;;
7029;SDS011;3556;53.500;10.176;2023-06-19T04:36:41;11.70;;;10.57;;
7029;SDS011;3556;53.500;10.176;2023-06-19T04:39:07;12.00;;;10.73;;
7029;SDS011;3556;53.500;10.176;2023-06-19T04:41:34;12.27;;;10.97;;
7029;SDS011;3556;53.500;10.176;2023-06-19T04:44:03;12.10;;;10.80;;
7029;SDS011;3556;53.500;10.176;2023-06-19T04:46:32;11.13;;;10.10;;
7029;SDS011;3556;53.500;10.176;2023-06-19T04:48:58;12.40;;;11.00;;
7029;SDS011;3556;53.500;10.176;2023-06-19T04:51:24;12.57;;;11.00;;
7029;SDS011;3556;53.500;10.176;2023-06-19T04:53:51;14.17;;;10.87;;
7029;SDS011;3556;53.500;10.176;2023-06-19T04:56:16;16.47;;;10.57;;
7029;SDS011;3556;53.500;10.176;2023-06-19T04:58:42;10.80;;;9.90;;
7029;SDS011;3556;53.500;10.176;2023-06-19T05:01:12;11.80;;;10.60;;
7029;SDS011;3556;53.500;10.176;2023-06-19T05:03:39;11.63;;;10.43;;
7029;SDS011;3556;53.500;10.176;2023-06-19T05:06:05;15.80;;;11.23;;
7029;SDS011;3556;53.500;10.176;2023-06-19T05:08:31;16.97;;;10.80;;
7029;SDS011;3556;53.500;10.176;2023-06-19T05:10:56;11.33;;;10.03;;
7029;SDS011;3556;53.500;10.176;2023-06-19T05:13:23;11.67;;;10.57;;
7029;SDS011;3556;53.500;10.176;2023-06-19T05:15:49;16.30;;;11.17;;
7029;SDS011;3556;53.500;10.176;2023-06-19T05:18:15;12.33;;;11.03;;
7029;SDS011;3556;53.500;10.176;2023-06-19T05:20:41;11.30;;;10.30;;
7029;SDS011;3556;53.500;10.176;2023-06-19T05:23:07;11.60;;;10.50;;
7029;SDS011;3556;53.500;10.176;2023-06-19T05:25:33;12.03;;;10.83;;
7029;SDS011;3556;53.500;10.176;2023-06-19T05:27:58;13.87;;;10.90;;
7029;SDS011;3556;53.500;10.176;2023-06-19T05:30:24;14.10;;;11.13;;
7029;SDS011;3556;53.500;10.176;2023-06-19T05:32:50;11.33;;;10.23;;
7029;SDS011;3556;53.500;10.176;2023-06-19T05:35:15;12.63;;;11.33;;
7029;SDS011;3556;53.500;10.176;2023-06-19T05:37:41;13.93;;;11.90;;
7029;SDS011;3556;53.500;10.176;2023-06-19T05:40:08;11.60;;;10.50;;
7029;SDS011;3556;53.500;10.176;2023-06-19T05:42:35;11.73;;;10.53;;
7029;SDS011;3556;53.500;10.176;2023-06-19T05:45:01;12.50;;;11.30;;
7029;SDS011;3556;53.500;10.176;2023-06-19T05:47:30;12.80;;;11.50;;
7029;SDS011;3556;53.500;10.176;2023-06-19T05:49:57;11.80;;;10.70;;
7029;SDS011;3556;53.500;10.176;2023-06-19T05:52:23;12.80;;;11.50;;
7029;SDS011;3556;53.500;10.176;2023-06-19T05:54:49;13.00;;;11.67;;
7029;SDS011;3556;53.500;10.176;2023-06-19T05:57:15;13.20;;;11.03;;
7029;SDS011;3556;53.500;10.176;2023-06-19T05:59:41;14.93;;;11.80;;
7029;SDS011;3556;53.500;10.176;2023-06-19T06:02:07;12.77;;;10.80;;
7029;SDS011;3556;53.500;10.176;2023-06-19T06:04:33;11.43;;;10.33;;
7029;SDS011;3556;53.500;10.176;2023-06-19T06:07:00;12.83;;;11.47;;
7029;SDS011;3556;53.500;10.176;2023-06-19T06:09:25;11.43;;;10.40;;
7029;SDS011;3556;53.500;10.176;2023-06-19T06:11:52;13.13;;;10.93;;
7029;SDS011;3556;53.500;10.176;2023-06-19T06:14:17;12.67;;;11.17;;
7029;SDS011;3556;53.500;10.176;2023-06-19T06:16:44;13.37;;;11.97;;
7029;SDS011;3556;53.500;10.176;2023-06-19T06:19:09;12.53;;;11.27;;
7029;SDS011;3556;53.500;10.176;2023-06-19T06:21:35;12.80;;;11.47;;
7029;SDS011;3556;53.500;10.176;2023-06-19T06:24:01;14.37;;;11.70;;
7029;SDS011;3556;53.500;10.176;2023-06-19T06:26:27;11.60;;;10.40;;
7029;SDS011;3556;53.500;10.176;2023-06-19T06:28:53;16.67;;;10.93;;
7029;SDS011;3556;53.500;10.176;2023-06-19T06:31:19;12.90;;;11.60;;
7029;SDS011;3556;53.500;10.176;2023-06-19T06:33:45;13.83;;;12.33;;
7029;SDS011;3556;53.500;10.176;2023-06-19T06:36:10;15.03;;;12.20;;
7029;SDS011;3556;53.500;10.176;2023-06-19T06:38:36;16.60;;;12.00;;
7029;SDS011;3556;53.500;10.176;2023-06-19T06:41:02;14.27;;;11.70;;
7029;SDS011;3556;53.500;10.176;2023-06-19T06:43:28;18.97;;;12.23;;
7029;SDS011;3556;53.500;10.176;2023-06-19T06:45:53;13.00;;;11.70;;
7029;SDS011;3556;53.500;10.176;2023-06-19T06:48:20;16.10;;;12.30;;
7029;SDS011;3556;53.500;10.176;2023-06-19T06:50:45;20.30;;;11.73;;
7029;SDS011;3556;53.500;10.176;2023-06-19T06:53:11;13.43;;;11.50;;
7029;SDS011;3556;53.500;10.176;2023-06-19T06:55:37;13.97;;;12.50;;
7029;SDS011;3556;53.500;10.176;2023-06-19T06:58:02;12.90;;;11.50;;
7029;SDS011;3556;53.500;10.176;2023-06-19T07:00:28;25.93;;;12.87;;
7029;SDS011;3556;53.500;10.176;2023-06-19T07:02:54;13.00;;;11.10;;
7029;SDS011;3556;53.500;10.176;2023-06-19T07:05:19;17.03;;;11.87;;
7029;SDS011;3556;53.500;10.176;2023-06-19T07:07:45;14.20;;;12.07;;
7029;SDS011;3556;53.500;10.176;2023-06-19T07:10:11;17.33;;;12.30;;
7029;SDS011;3556;53.500;10.176;2023-06-19T07:12:44;14.40;;;11.93;;
7029;SDS011;3556;53.500;10.176;2023-06-19T07:15:13;12.87;;;11.57;;
7029;SDS011;3556;53.500;10.176;2023-06-19T07:17:39;15.30;;;11.50;;
7029;SDS011;3556;53.500;10.176;2023-06-19T07:20:05;14.50;;;11.97;;
7029;SDS011;3556;53.500;10.176;2023-06-19T07:22:31;14.50;;;12.27;;
7029;SDS011;3556;53.500;10.176;2023-06-19T07:24:57;13.77;;;12.37;;
7029;SDS011;3556;53.500;10.176;2023-06-19T07:27:23;13.90;;;12.37;;
7029;SDS011;3556;53.500;10.176;2023-06-19T07:29:52;14.13;;;12.40;;
7029;SDS011;3556;53.500;10.176;2023-06-19T07:32:18;18.40;;;12.13;;
7029;SDS011;3556;53.500;10.176;2023-06-19T07:34:44;14.90;;;12.43;;
7029;SDS011;3556;53.500;10.176;2023-06-19T07:37:10;16.43;;;12.50;;
7029;SDS011;3556;53.500;10.176;2023-06-19T07:39:42;15.00;;;12.70;;
7029;SDS011;3556;53.500;10.176;2023-06-19T07:42:15;13.70;;;12.33;;
7029;SDS011;3556;53.500;10.176;2023-06-19T07:44:41;13.50;;;11.90;;
7029;SDS011;3556;53.500;10.176;2023-06-19T07:47:08;18.43;;;12.80;;
7029;SDS011;3556;53.500;10.176;2023-06-19T07:49:34;14.60;;;13.10;;
7029;SDS011;3556;53.500;10.176;2023-06-19T07:52:00;13.33;;;12.03;;
7029;SDS011;3556;53.500;10.176;2023-06-19T07:54:26;14.87;;;12.43;;
7029;SDS011;3556;53.500;10.176;2023-06-19T07:56:52;14.33;;;12.93;;
7029;SDS011;3556;53.500;10.176;2023-06-19T07:59:17;14.47;;;12.33;;
7029;SDS011;3556;53.500;10.176;2023-06-19T08:01:43;13.27;;;11.63;;
7029;SDS011;3556;53.500;10.176;2023-06-19T08:04:09;14.47;;;13.00;;
7029;SDS011;3556;53.500;10.176;2023-06-19T08:06:35;14.53;;;13.03;;
7029;SDS011;3556;53.500;10.176;2023-06-19T08:09:01;21.17;;;12.87;;
7029;SDS011;3556;53.500;10.176;2023-06-19T08:11:27;15.33;;;12.87;;
7029;SDS011;3556;53.500;10.176;2023-06-19T08:13:52;13.23;;;12.00;;
7029;SDS011;3556;53.500;10.176;2023-06-19T08:16:18;14.43;;;12.90;;
7029;SDS011;3556;53.500;10.176;2023-06-19T08:18:44;14.23;;;12.73;;
7029;SDS011;3556;53.500;10.176;2023-06-19T08:21:10;14.07;;;12.40;;
7029;SDS011;3556;53.500;10.176;2023-06-19T08:23:36;14.03;;;12.00;;
7029;SDS011;3556;53.500;10.176;2023-06-19T08:26:04;17.60;;;13.43;;
7029;SDS011;3556;53.500;10.176;2023-06-19T08:28:33;14.07;;;12.03;;
7029;SDS011;3556;53.500;10.176;2023-06-19T08:30:58;14.37;;;12.97;;
7029;SDS011;3556;53.500;10.176;2023-06-19T08:33:24;19.07;;;12.50;;
7029;SDS011;3556;53.500;10.176;2023-06-19T08:35:50;14.13;;;12.67;;
7029;SDS011;3556;53.500;10.176;2023-06-19T08:38:15;13.53;;;12.30;;
7029;SDS011;3556;53.500;10.176;2023-06-19T08:40:41;13.90;;;12.43;;
7029;SDS011;3556;53.500;10.176;2023-06-19T08:43:08;14.17;;;12.40;;
7029;SDS011;3556;53.500;10.176;2023-06-19T08:45:33;14.50;;;13.10;;
7029;SDS011;3556;53.500;10.176;2023-06-19T08:48:00;16.57;;;11.90;;
7029;SDS011;3556;53.500;10.176;2023-06-19T08:50:28;16.80;;;13.10;;
7029;SDS011;3556;53.500;10.176;2023-06-19T08:52:55;18.93;;;12.93;;
7029;SDS011;3556;53.500;10.176;2023-06-19T08:55:22;14.47;;;12.80;;
7029;SDS011;3556;53.500;10.176;2023-06-19T08:57:48;14.60;;;13.03;;
7029;SDS011;3556;53.500;10.176;2023-06-19T09:00:22;14.93;;;13.33;;
7029;SDS011;3556;53.500;10.176;2023-06-19T09:02:50;14.77;;;13.10;;
7029;SDS011;3556;53.500;10.176;2023-06-19T09:05:16;15.17;;;13.60;;
7029;SDS011;3556;53.500;10.176;2023-06-19T09:07:44;14.90;;;13.40;;
7029;SDS011;3556;53.500;10.176;2023-06-19T09:10:19;13.87;;;12.20;;
7029;SDS011;3556;53.500;10.176;2023-06-19T09:15:26;14.10;;;12.50;;
7029;SDS011;3556;53.500;10.176;2023-06-19T09:18:00;15.80;;;12.57;;
7029;SDS011;3556;53.500;10.176;2023-06-19T09:20:39;14.30;;;12.90;;
7029;SDS011;3556;53.500;10.176;2023-06-19T09:23:09;13.87;;;12.53;;
7029;SDS011;3556;53.500;10.176;2023-06-19T09:25:56;14.33;;;12.93;;
7029;SDS011;3556;53.500;10.176;2023-06-19T09:28:23;13.43;;;12.07;;
7029;SDS011;3556;53.500;10.176;2023-06-19T09:30:57;13.57;;;12.17;;
7029;SDS011;3556;53.500;10.176;2023-06-19T09:33:29;12.60;;;11.40;;
7029;SDS011;3556;53.500;10.176;2023-06-19T09:35:57;14.60;;;13.10;;
7029;SDS011;3556;53.500;10.176;2023-06-19T09:38:25;17.93;;;13.13;;
7029;SDS011;3556;53.500;10.176;2023-06-19T09:40:56;12.47;;;11.10;;
7029;SDS011;3556;53.500;10.176;2023-06-19T09:43:25;13.80;;;10.57;;
7029;SDS011;3556;53.500;10.176;2023-06-19T09:45:55;12.30;;;11.00;;
7029;SDS011;3556;53.500;10.176;2023-06-19T09:48:26;12.93;;;11.60;;
7029;SDS011;3556;53.500;10.176;2023-06-19T09:51:02;12.60;;;11.30;;
7029;SDS011;3556;53.500;10.176;2023-06-19T09:53:37;11.53;;;10.43;;
7029;SDS011;3556;53.500;10.176;2023-06-19T09:56:03;21.10;;;11.83;;
7029;SDS011;3556;53.500;10.176;2023-06-19T09:58:28;14.03;;;12.63;;
7029;SDS011;3556;53.500;10.176;2023-06-19T10:00:55;12.87;;;10.60;;
7029;SDS011;3556;53.500;10.176;2023-06-19T10:03:29;12.97;;;11.60;;
7029;SDS011;3556;53.500;10.176;2023-06-19T10:05:59;12.50;;;11.30;;
7029;SDS011;3556;53.500;10.176;2023-06-19T10:08:30;13.27;;;11.93;;
7029;SDS011;3556;53.500;10.176;2023-06-19T10:10:57;14.63;;;11.40;;
7029;SDS011;3556;53.500;10.176;2023-06-19T10:13:30;12.33;;;11.13;;
7029;SDS011;3556;53.500;10.176;2023-06-19T10:16:01;11.80;;;10.63;;
7029;SDS011;3556;53.500;10.176;2023-06-19T10:18:27;13.37;;;12.07;;
7029;SDS011;3556;53.500;10.176;2023-06-19T10:20:56;12.30;;;11.17;;
7029;SDS011;3556;53.500;10.176;2023-06-19T10:23:23;11.77;;;10.57;;
7029;SDS011;3556;53.500;10.176;2023-06-19T10:28:19;12.50;;;11.30;;
7029;SDS011;3556;53.500;10.176;2023-06-19T10:33:39;13.93;;;12.20;;
7029;SDS011;3556;53.500;10.176;2023-06-19T10:36:14;15.00;;;11.60;;
7029;SDS011;3556;53.500;10.176;2023-06-19T10:38:40;14.20;;;12.33;;
7029;SDS011;3556;53.500;10.176;2023-06-19T10:41:18;13.07;;;11.77;;
7029;SDS011;3556;53.500;10.176;2023-06-19T10:43:55;15.27;;;11.57;;
7029;SDS011;3556;53.500;10.176;2023-06-19T10:46:22;13.37;;;11.47;;
7029;SDS011;3556;53.500;10.176;2023-06-19T10:48:49;13.50;;;12.20;;
7029;SDS011;3556;53.500;10.176;2023-06-19T10:51:18;14.73;;;12.47;;
7029;SDS011;3556;53.500;10.176;2023-06-19T10:53:44;14.10;;;12.30;;
7029;SDS011;3556;53.500;10.176;2023-06-19T10:56:10;12.20;;;10.67;;
7029;SDS011;3556;53.500;10.176;2023-06-19T10:58:36;13.93;;;11.90;;
7029;SDS011;3556;53.500;10.176;2023-06-19T11:01:01;19.83;;;12.00;;
7029;SDS011;3556;53.500;10.176;2023-06-19T11:03:28;15.17;;;11.47;;
7029;SDS011;3556;53.500;10.176;2023-06-19T11:05:54;13.10;;;11.63;;
7029;SDS011;3556;53.500;10.176;2023-06-19T11:08:20;12.00;;;10.80;;
7029;SDS011;3556;53.500;10.176;2023-06-19T11:10:47;12.03;;;10.83;;
7029;SDS011;3556;53.500;10.176;2023-06-19T11:13:17;12.83;;;11.60;;
7029;SDS011;3556;53.500;10.176;2023-06-19T11:15:44;13.00;;;10.97;;
7029;SDS011;3556;53.500;10.176;2023-06-19T11:18:10;13.93;;;10.83;;
7029;SDS011;3556;53.500;10.176;2023-06-19T11:20:43;11.70;;;10.60;;
7029;SDS011;3556;53.500;10.176;2023-06-19T11:23:15;13.60;;;10.83;;
7029;SDS011;3556;53.500;10.176;2023-06-19T11:25:41;14.73;;;11.43;;
7029;SDS011;3556;53.500;10.176;2023-06-19T11:28:11;12.67;;;11.37;;
7029;SDS011;3556;53.500;10.176;2023-06-19T11:30:38;13.37;;;11.63;;
7029;SDS011;3556;53.500;10.176;2023-06-19T11:33:14;13.17;;;11.87;;
7029;SDS011;3556;53.500;10.176;2023-06-19T11:38:16;13.10;;;11.30;;
7029;SDS011;3556;53.500;10.176;2023-06-19T11:40:49;14.30;;;12.10;;
7029;SDS011;3556;53.500;10.176;2023-06-19T11:43:28;15.40;;;12.10;;
7029;SDS011;3556;53.500;10.176;2023-06-19T11:46:04;14.93;;;12.13;;
7029;SDS011;3556;53.500;10.176;2023-06-19T11:48:30;12.10;;;11.00;;
7029;SDS011;3556;53.500;10.176;2023-06-19T11:50:56;11.30;;;10.20;;
7029;SDS011;3556;53.500;10.176;2023-06-19T11:53:22;11.83;;;10.73;;
7029;SDS011;3556;53.500;10.176;2023-06-19T11:55:50;13.23;;;10.33;;
7029;SDS011;3556;53.500;10.176;2023-06-19T11:58:16;11.80;;;10.63;;
7029;SDS011;3556;53.500;10.176;2023-06-19T12:00:42;13.83;;;10.83;;
7029;SDS011;3556;53.500;10.176;2023-06-19T12:03:08;11.60;;;10.50;;
7029;SDS011;3556;53.500;10.176;2023-06-19T12:05:34;11.40;;;10.27;;
7029;SDS011;3556;53.500;10.176;2023-06-19T12:08:00;11.57;;;10.07;;
7029;SDS011;3556;53.500;10.176;2023-06-19T12:10:29;10.93;;;9.90;;
7029;SDS011;3556;53.500;10.176;2023-06-19T12:12:55;12.67;;;10.50;;
7029;SDS011;3556;53.500;10.176;2023-06-19T12:15:21;12.07;;;10.50;;
7029;SDS011;3556;53.500;10.176;2023-06-19T12:17:47;12.17;;;9.60;;
7029;SDS011;3556;53.500;10.176;2023-06-19T12:20:13;10.07;;;9.00;;
7029;SDS011;3556;53.500;10.176;2023-06-19T12:22:39;10.03;;;9.13;;
7029;SDS011;3556;53.500;10.176;2023-06-19T12:25:06;9.67;;;8.67;;
7029;SDS011;3556;53.500;10.176;2023-06-19T12:27:31;9.53;;;8.70;;
7029;SDS011;3556;53.500;10.176;2023-06-19T12:29:57;9.17;;;8.37;;
7029;SDS011;3556;53.500;10.176;2023-06-19T12:32:23;10.30;;;8.17;;
7029;SDS011;3556;53.500;10.176;2023-06-19T12:34:49;9.50;;;8.50;;
7029;SDS011;3556;53.500;10.176;2023-06-19T12:37:18;11.90;;;8.70;;
7029;SDS011;3556;53.500;10.176;2023-06-19T12:39:45;15.77;;;8.50;;
7029;SDS011;3556;53.500;10.176;2023-06-19T12:42:14;9.23;;;8.33;;
7029;SDS011;3556;53.500;10.176;2023-06-19T12:44:40;9.23;;;8.27;;
7029;SDS011;3556;53.500;10.176;2023-06-19T12:47:07;9.40;;;8.50;;
7029;SDS011;3556;53.500;10.176;2023-06-19T12:49:33;10.47;;;8.40;;
7029;SDS011;3556;53.500;10.176;2023-06-19T12:51:59;8.30;;;7.60;;
7029;SDS011;3556;53.500;10.176;2023-06-19T12:54:25;18.90;;;8.03;;
7029;SDS011;3556;53.500;10.176;2023-06-19T12:56:51;8.97;;;6.90;;
7029;SDS011;3556;53.500;10.176;2023-06-19T12:59:17;8.63;;;7.57;;
7029;SDS011;3556;53.500;10.176;2023-06-19T13:01:43;10.47;;;7.80;;
7029;SDS011;3556;53.500;10.176;2023-06-19T13:04:09;8.43;;;7.30;;
7029;SDS011;3556;53.500;10.176;2023-06-19T13:06:36;8.17;;;7.47;;
7029;SDS011;3556;53.500;10.176;2023-06-19T13:09:02;9.43;;;8.43;;
7029;SDS011;3556;53.500;10.176;2023-06-19T13:11:30;8.80;;;7.43;;
7029;SDS011;3556;53.500;10.176;2023-06-19T13:13:56;8.20;;;7.33;;
7029;SDS011;3556;53.500;10.176;2023-06-19T13:16:21;10.53;;;7.83;;
7029;SDS011;3556;53.500;10.176;2023-06-19T13:18:50;9.20;;;8.00;;
7029;SDS011;3556;53.500;10.176;2023-06-19T13:21:16;10.40;;;7.63;;
7029;SDS011;3556;53.500;10.176;2023-06-19T13:23:41;10.10;;;7.50;;
7029;SDS011;3556;53.500;10.176;2023-06-19T13:26:07;8.07;;;6.00;;
7029;SDS011;3556;53.500;10.176;2023-06-19T13:28:33;8.67;;;5.57;;
7029;SDS011;3556;53.500;10.176;2023-06-19T13:30:59;6.43;;;5.83;;
7029;SDS011;3556;53.500;10.176;2023-06-19T13:33:25;5.60;;;5.17;;
7029;SDS011;3556;53.500;10.176;2023-06-19T13:35:50;5.63;;;5.17;;
7029;SDS011;3556;53.500;10.176;2023-06-19T13:38:17;7.83;;;5.30;;
7029;SDS011;3556;53.500;10.176;2023-06-19T13:40:43;5.17;;;4.87;;
7029;SDS011;3556;53.500;10.176;2023-06-19T13:43:09;11.00;;;4.40;;
7029;SDS011;3556;53.500;10.176;2023-06-19T13:45:35;5.57;;;4.57;;
7029;SDS011;3556;53.500;10.176;2023-06-19T13:48:03;4.53;;;4.13;;
7029;SDS011;3556;53.500;10.176;2023-06-19T13:50:29;5.33;;;4.80;;
7029;SDS011;3556;53.500;10.176;2023-06-19T13:52:55;4.50;;;4.27;;
7029;SDS011;3556;53.500;10.176;2023-06-19T13:55:21;8.10;;;4.40;;
7029;SDS011;3556;53.500;10.176;2023-06-19T13:57:48;4.90;;;4.50;;
7029;SDS011;3556;53.500;10.176;2023-06-19T14:00:14;5.03;;;4.73;;
7029;SDS011;3556;53.500;10.176;2023-06-19T14:02:41;7.33;;;5.43;;
7029;SDS011;3556;53.500;10.176;2023-06-19T14:05:07;7.47;;;5.30;;
7029;SDS011;3556;53.500;10.176;2023-06-19T14:07:34;7.20;;;5.50;;
7029;SDS011;3556;53.500;10.176;2023-06-19T14:10:01;6.93;;;6.10;;
7029;SDS011;3556;53.500;10.176;2023-06-19T14:12:29;7.80;;;6.63;;
7029;SDS011;3556;53.500;10.176;2023-06-19T14:14:55;8.07;;;7.30;;
7029;SDS011;3556;53.500;10.176;2023-06-19T14:17:21;7.33;;;6.27;;
7029;SDS011;3556;53.500;10.176;2023-06-19T14:19:47;10.10;;;6.30;;
7029;SDS011;3556;53.500;10.176;2023-06-19T14:22:13;5.77;;;5.30;;
7029;SDS011;3556;53.500;10.176;2023-06-19T14:24:39;5.90;;;5.37;;
7029;SDS011;3556;53.500;10.176;2023-06-19T14:27:04;7.53;;;6.50;;
7029;SDS011;3556;53.500;10.176;2023-06-19T14:29:30;7.50;;;6.83;;
7029;SDS011;3556;53.500;10.176;2023-06-19T14:31:56;8.90;;;8.00;;
7029;SDS011;3556;53.500;10.176;2023-06-19T14:34:21;8.00;;;7.30;;
7029;SDS011;3556;53.500;10.176;2023-06-19T14:36:47;8.00;;;7.03;;
7029;SDS011;3556;53.500;10.176;2023-06-19T14:39:13;8.07;;;7.27;;
7029;SDS011;3556;53.500;10.176;2023-06-19T14:41:39;9.43;;;7.37;;
7029;SDS011;3556;53.500;10.176;2023-06-19T14:44:04;8.50;;;7.50;;
7029;SDS011;3556;53.500;10.176;2023-06-19T14:46:33;8.10;;;7.40;;
7029;SDS011;3556;53.500;10.176;2023-06-19T14:49:04;7.80;;;7.03;;
7029;SDS011;3556;53.500;10.176;2023-06-19T14:51:30;7.60;;;7.00;;